sensor_id;sensor_type;location;lat;lon;timestamp;P1;durP1;ratioP1;P2;durP2;ratioP2
68806;SDS011;55800;54.272;18.558;2024-03-25T00:00:02;17.33;;;9.98;;
68806;SDS011;55800;54.272;18.558;2024-03-25T00:02:57;16.70;;;10.00;;
68806;SDS011;55800;54.272;18.558;2024-03-25T00:05:25;17.27;;;10.50;;
68806;SDS011;55800;54.272;18.558;2024-03-25T00:07:52;13.75;;;8.50;;
68806;SDS011;55800;54.272;18.558;2024-03-25T00:10:21;15.45;;;9.38;;
68806;SDS011;55800;54.272;18.558;2024-03-25T00:12:49;19.50;;;10.20;;
68806;SDS011;55800;54.272;18.558;2024-03-25T00:15:21;15.50;;;9.20;;
68806;SDS011;55800;54.272;18.558;2024-03-25T00:17:49;17.05;;;8.95;;
68806;SDS011;55800;54.272;18.558;2024-03-25T00:20:17;15.25;;;9.18;;
68806;SDS011;55800;54.272;18.558;2024-03-25T00:22:45;13.80;;;9.07;;
68806;SDS011;55800;54.272;18.558;2024-03-25T00:25:13;17.63;;;9.07;;
68806;SDS011;55800;54.272;18.558;2024-03-25T00:27:42;13.18;;;9.45;;
68806;SDS011;55800;54.272;18.558;2024-03-25T00:30:12;15.10;;;8.90;;
68806;SDS011;55800;54.272;18.558;2024-03-25T00:32:39;17.23;;;9.40;;
68806;SDS011;55800;54.272;18.558;2024-03-25T00:35:08;18.25;;;8.90;;
68806;SDS011;55800;54.272;18.558;2024-03-25T00:37:35;14.68;;;9.90;;
68806;SDS011;55800;54.272;18.558;2024-03-25T00:40:04;13.77;;;9.88;;
68806;SDS011;55800;54.272;18.558;2024-03-25T00:42:33;13.68;;;8.77;;
68806;SDS011;55800;54.272;18.558;2024-03-25T00:45:01;12.07;;;8.38;;
68806;SDS011;55800;54.272;18.558;2024-03-25T00:47:30;11.23;;;7.95;;
68806;SDS011;55800;54.272;18.558;2024-03-25T00:49:58;16.17;;;8.45;;
68806;SDS011;55800;54.272;18.558;2024-03-25T00:52:25;16.20;;;8.45;;
68806;SDS011;55800;54.272;18.558;2024-03-25T00:54:53;14.07;;;9.75;;
68806;SDS011;55800;54.272;18.558;2024-03-25T00:57:21;14.77;;;10.02;;
68806;SDS011;55800;54.272;18.558;2024-03-25T00:59:49;14.80;;;8.48;;
68806;SDS011;55800;54.272;18.558;2024-03-25T01:02:16;14.73;;;8.88;;
68806;SDS011;55800;54.272;18.558;2024-03-25T01:04:46;13.82;;;9.20;;
68806;SDS011;55800;54.272;18.558;2024-03-25T01:07:13;14.85;;;9.63;;
68806;SDS011;55800;54.272;18.558;2024-03-25T01:09:41;14.60;;;8.23;;
68806;SDS011;55800;54.272;18.558;2024-03-25T01:12:09;15.02;;;8.93;;
68806;SDS011;55800;54.272;18.558;2024-03-25T01:14:37;15.88;;;9.23;;
68806;SDS011;55800;54.272;18.558;2024-03-25T01:17:04;14.98;;;7.60;;
68806;SDS011;55800;54.272;18.558;2024-03-25T01:19:32;14.48;;;9.05;;
68806;SDS011;55800;54.272;18.558;2024-03-25T01:22:00;11.18;;;7.57;;
68806;SDS011;55800;54.272;18.558;2024-03-25T01:24:29;12.75;;;8.50;;
68806;SDS011;55800;54.272;18.558;2024-03-25T01:26:56;10.70;;;7.63;;
68806;SDS011;55800;54.272;18.558;2024-03-25T01:29:24;13.93;;;8.50;;
68806;SDS011;55800;54.272;18.558;2024-03-25T01:31:51;14.70;;;8.82;;
68806;SDS011;55800;54.272;18.558;2024-03-25T01:34:20;14.13;;;8.45;;
68806;SDS011;55800;54.272;18.558;2024-03-25T01:36:47;14.05;;;8.52;;
68806;SDS011;55800;54.272;18.558;2024-03-25T01:39:16;17.13;;;9.55;;
68806;SDS011;55800;54.272;18.558;2024-03-25T01:41:44;11.43;;;8.15;;
68806;SDS011;55800;54.272;18.558;2024-03-25T01:44:12;15.85;;;8.95;;
68806;SDS011;55800;54.272;18.558;2024-03-25T01:46:39;9.88;;;7.22;;
68806;SDS011;55800;54.272;18.558;2024-03-25T01:49:09;17.48;;;8.13;;
68806;SDS011;55800;54.272;18.558;2024-03-25T01:51:36;16.55;;;8.43;;
68806;SDS011;55800;54.272;18.558;2024-03-25T01:54:06;11.85;;;7.80;;
68806;SDS011;55800;54.272;18.558;2024-03-25T01:56:36;12.57;;;8.82;;
68806;SDS011;55800;54.272;18.558;2024-03-25T01:59:07;13.60;;;9.20;;
68806;SDS011;55800;54.272;18.558;2024-03-25T02:01:34;14.88;;;9.90;;
68806;SDS011;55800;54.272;18.558;2024-03-25T02:04:03;14.47;;;8.63;;
68806;SDS011;55800;54.272;18.558;2024-03-25T02:06:30;18.77;;;9.45;;
68806;SDS011;55800;54.272;18.558;2024-03-25T02:09:00;18.33;;;10.07;;
68806;SDS011;55800;54.272;18.558;2024-03-25T02:11:29;19.67;;;10.60;;
68806;SDS011;55800;54.272;18.558;2024-03-25T02:14:00;17.33;;;9.88;;
68806;SDS011;55800;54.272;18.558;2024-03-25T02:16:27;16.70;;;10.27;;
68806;SDS011;55800;54.272;18.558;2024-03-25T02:18:56;19.88;;;10.85;;
68806;SDS011;55800;54.272;18.558;2024-03-25T02:21:23;17.65;;;10.38;;
68806;SDS011;55800;54.272;18.558;2024-03-25T02:23:51;18.35;;;10.80;;
68806;SDS011;55800;54.272;18.558;2024-03-25T02:28:50;17.67;;;9.60;;
68806;SDS011;55800;54.272;18.558;2024-03-25T02:31:17;17.17;;;11.07;;
68806;SDS011;55800;54.272;18.558;2024-03-25T02:33:46;19.38;;;11.80;;
68806;SDS011;55800;54.272;18.558;2024-03-25T02:36:13;23.05;;;12.90;;
68806;SDS011;55800;54.272;18.558;2024-03-25T02:38:41;15.57;;;11.10;;
68806;SDS011;55800;54.272;18.558;2024-03-25T02:41:09;19.52;;;11.55;;
68806;SDS011;55800;54.272;18.558;2024-03-25T02:43:38;18.42;;;11.13;;
68806;SDS011;55800;54.272;18.558;2024-03-25T02:46:06;17.52;;;10.90;;
68806;SDS011;55800;54.272;18.558;2024-03-25T02:48:34;17.55;;;11.13;;
68806;SDS011;55800;54.272;18.558;2024-03-25T02:51:01;18.58;;;12.18;;
68806;SDS011;55800;54.272;18.558;2024-03-25T02:53:29;16.65;;;11.18;;
68806;SDS011;55800;54.272;18.558;2024-03-25T02:55:57;20.02;;;11.48;;
68806;SDS011;55800;54.272;18.558;2024-03-25T02:58:25;17.50;;;12.95;;
68806;SDS011;55800;54.272;18.558;2024-03-25T03:00:53;19.40;;;11.65;;
68806;SDS011;55800;54.272;18.558;2024-03-25T03:03:22;19.50;;;11.98;;
68806;SDS011;55800;54.272;18.558;2024-03-25T03:05:49;18.77;;;10.60;;
68806;SDS011;55800;54.272;18.558;2024-03-25T03:08:17;21.02;;;10.98;;
68806;SDS011;55800;54.272;18.558;2024-03-25T03:10:44;22.55;;;11.27;;
68806;SDS011;55800;54.272;18.558;2024-03-25T03:13:12;15.93;;;11.07;;
68806;SDS011;55800;54.272;18.558;2024-03-25T03:15:43;20.90;;;11.68;;
68806;SDS011;55800;54.272;18.558;2024-03-25T03:18:13;18.60;;;10.25;;
68806;SDS011;55800;54.272;18.558;2024-03-25T03:20:40;19.05;;;9.90;;
68806;SDS011;55800;54.272;18.558;2024-03-25T03:23:08;13.73;;;10.23;;
68806;SDS011;55800;54.272;18.558;2024-03-25T03:25:35;15.45;;;10.00;;
68806;SDS011;55800;54.272;18.558;2024-03-25T03:28:03;20.23;;;11.15;;
68806;SDS011;55800;54.272;18.558;2024-03-25T03:33:48;17.58;;;9.68;;
68806;SDS011;55800;54.272;18.558;2024-03-25T03:36:16;17.70;;;11.15;;
68806;SDS011;55800;54.272;18.558;2024-03-25T03:38:44;18.38;;;11.52;;
68806;SDS011;55800;54.272;18.558;2024-03-25T03:41:11;22.83;;;12.07;;
68806;SDS011;55800;54.272;18.558;2024-03-25T03:43:40;23.83;;;12.02;;
68806;SDS011;55800;54.272;18.558;2024-03-25T03:46:07;17.42;;;11.30;;
68806;SDS011;55800;54.272;18.558;2024-03-25T03:48:35;22.83;;;10.95;;
68806;SDS011;55800;54.272;18.558;2024-03-25T03:51:05;19.70;;;12.60;;
68806;SDS011;55800;54.272;18.558;2024-03-25T03:53:34;22.02;;;11.50;;
68806;SDS011;55800;54.272;18.558;2024-03-25T03:56:02;20.90;;;12.13;;
68806;SDS011;55800;54.272;18.558;2024-03-25T03:58:32;19.33;;;11.98;;
68806;SDS011;55800;54.272;18.558;2024-03-25T04:00:59;20.27;;;12.85;;
68806;SDS011;55800;54.272;18.558;2024-03-25T04:03:30;22.45;;;12.80;;
68806;SDS011;55800;54.272;18.558;2024-03-25T04:05:57;19.98;;;12.55;;
68806;SDS011;55800;54.272;18.558;2024-03-25T04:08:27;23.70;;;13.82;;
68806;SDS011;55800;54.272;18.558;2024-03-25T04:10:54;23.13;;;13.48;;
68806;SDS011;55800;54.272;18.558;2024-03-25T04:13:22;21.30;;;14.55;;
68806;SDS011;55800;54.272;18.558;2024-03-25T04:15:49;20.98;;;12.98;;
68806;SDS011;55800;54.272;18.558;2024-03-25T04:18:18;21.63;;;12.88;;
68806;SDS011;55800;54.272;18.558;2024-03-25T04:20:45;21.63;;;13.52;;
68806;SDS011;55800;54.272;18.558;2024-03-25T04:23:14;27.20;;;14.25;;
68806;SDS011;55800;54.272;18.558;2024-03-25T04:25:42;25.83;;;13.85;;
68806;SDS011;55800;54.272;18.558;2024-03-25T04:28:11;24.58;;;14.82;;
68806;SDS011;55800;54.272;18.558;2024-03-25T04:30:38;25.73;;;14.65;;
68806;SDS011;55800;54.272;18.558;2024-03-25T04:33:06;25.35;;;15.70;;
68806;SDS011;55800;54.272;18.558;2024-03-25T04:35:34;25.05;;;14.35;;
68806;SDS011;55800;54.272;18.558;2024-03-25T04:38:02;28.70;;;15.63;;
68806;SDS011;55800;54.272;18.558;2024-03-25T04:40:29;27.80;;;16.40;;
68806;SDS011;55800;54.272;18.558;2024-03-25T04:42:58;30.13;;;16.15;;
68806;SDS011;55800;54.272;18.558;2024-03-25T04:45:25;28.63;;;19.02;;
68806;SDS011;55800;54.272;18.558;2024-03-25T04:47:52;27.17;;;16.15;;
68806;SDS011;55800;54.272;18.558;2024-03-25T04:50:19;27.60;;;16.00;;
68806;SDS011;55800;54.272;18.558;2024-03-25T04:52:47;26.88;;;15.75;;
68806;SDS011;55800;54.272;18.558;2024-03-25T04:55:14;29.33;;;15.48;;
68806;SDS011;55800;54.272;18.558;2024-03-25T04:57:41;26.75;;;13.43;;
68806;SDS011;55800;54.272;18.558;2024-03-25T05:00:10;25.17;;;14.60;;
68806;SDS011;55800;54.272;18.558;2024-03-25T05:02:39;28.13;;;15.80;;
68806;SDS011;55800;54.272;18.558;2024-03-25T05:05:06;30.58;;;18.00;;
68806;SDS011;55800;54.272;18.558;2024-03-25T05:07:33;29.95;;;18.80;;
68806;SDS011;55800;54.272;18.558;2024-03-25T05:10:00;26.02;;;15.13;;
68806;SDS011;55800;54.272;18.558;2024-03-25T05:12:28;28.08;;;18.27;;
68806;SDS011;55800;54.272;18.558;2024-03-25T05:14:55;25.90;;;15.20;;
68806;SDS011;55800;54.272;18.558;2024-03-25T05:17:24;25.70;;;15.55;;
68806;SDS011;55800;54.272;18.558;2024-03-25T05:19:51;27.02;;;16.42;;
68806;SDS011;55800;54.272;18.558;2024-03-25T05:22:18;32.05;;;17.35;;
68806;SDS011;55800;54.272;18.558;2024-03-25T05:24:45;23.05;;;15.27;;
68806;SDS011;55800;54.272;18.558;2024-03-25T05:27:15;24.88;;;15.23;;
68806;SDS011;55800;54.272;18.558;2024-03-25T05:29:42;24.55;;;15.52;;
68806;SDS011;55800;54.272;18.558;2024-03-25T05:32:09;25.45;;;14.82;;
68806;SDS011;55800;54.272;18.558;2024-03-25T05:34:37;24.75;;;15.27;;
68806;SDS011;55800;54.272;18.558;2024-03-25T05:37:05;29.00;;;16.80;;
68806;SDS011;55800;54.272;18.558;2024-03-25T05:39:32;29.92;;;17.38;;
68806;SDS011;55800;54.272;18.558;2024-03-25T05:41:59;29.40;;;17.48;;
68806;SDS011;55800;54.272;18.558;2024-03-25T05:44:27;31.42;;;17.05;;
68806;SDS011;55800;54.272;18.558;2024-03-25T05:46:54;28.90;;;16.63;;
68806;SDS011;55800;54.272;18.558;2024-03-25T05:49:21;31.90;;;18.25;;
68806;SDS011;55800;54.272;18.558;2024-03-25T05:51:50;29.83;;;18.25;;
68806;SDS011;55800;54.272;18.558;2024-03-25T05:54:17;34.10;;;18.30;;
68806;SDS011;55800;54.272;18.558;2024-03-25T05:56:45;30.17;;;17.98;;
68806;SDS011;55800;54.272;18.558;2024-03-25T05:59:12;24.55;;;16.90;;
68806;SDS011;55800;54.272;18.558;2024-03-25T06:01:40;34.45;;;18.48;;
68806;SDS011;55800;54.272;18.558;2024-03-25T06:04:07;26.60;;;17.17;;
68806;SDS011;55800;54.272;18.558;2024-03-25T06:06:35;27.40;;;16.60;;
68806;SDS011;55800;54.272;18.558;2024-03-25T06:09:03;30.42;;;17.88;;
68806;SDS011;55800;54.272;18.558;2024-03-25T06:11:30;31.80;;;20.15;;
68806;SDS011;55800;54.272;18.558;2024-03-25T06:13:59;33.75;;;19.20;;
68806;SDS011;55800;54.272;18.558;2024-03-25T06:16:26;30.77;;;17.88;;
68806;SDS011;55800;54.272;18.558;2024-03-25T06:18:53;29.55;;;18.77;;
68806;SDS011;55800;54.272;18.558;2024-03-25T06:21:21;31.40;;;19.38;;
68806;SDS011;55800;54.272;18.558;2024-03-25T06:23:48;31.83;;;19.52;;
68806;SDS011;55800;54.272;18.558;2024-03-25T06:26:16;30.95;;;18.45;;
68806;SDS011;55800;54.272;18.558;2024-03-25T06:28:43;30.48;;;19.35;;
68806;SDS011;55800;54.272;18.558;2024-03-25T06:31:11;39.70;;;22.30;;
68806;SDS011;55800;54.272;18.558;2024-03-25T06:33:56;43.60;;;23.45;;
68806;SDS011;55800;54.272;18.558;2024-03-25T06:36:43;36.38;;;21.63;;
68806;SDS011;55800;54.272;18.558;2024-03-25T06:39:10;39.25;;;19.63;;
68806;SDS011;55800;54.272;18.558;2024-03-25T06:41:39;37.65;;;20.08;;
68806;SDS011;55800;54.272;18.558;2024-03-25T06:44:06;39.45;;;23.02;;
68806;SDS011;55800;54.272;18.558;2024-03-25T06:46:34;30.30;;;19.20;;
68806;SDS011;55800;54.272;18.558;2024-03-25T06:49:01;30.35;;;18.42;;
68806;SDS011;55800;54.272;18.558;2024-03-25T06:51:28;33.67;;;17.98;;
68806;SDS011;55800;54.272;18.558;2024-03-25T06:53:55;32.72;;;17.85;;
68806;SDS011;55800;54.272;18.558;2024-03-25T06:56:23;33.35;;;19.70;;
68806;SDS011;55800;54.272;18.558;2024-03-25T06:58:53;33.95;;;18.85;;
68806;SDS011;55800;54.272;18.558;2024-03-25T07:01:20;36.50;;;19.13;;
68806;SDS011;55800;54.272;18.558;2024-03-25T07:03:47;33.45;;;20.13;;
68806;SDS011;55800;54.272;18.558;2024-03-25T07:06:14;34.72;;;20.40;;
68806;SDS011;55800;54.272;18.558;2024-03-25T07:08:41;38.03;;;20.45;;
68806;SDS011;55800;54.272;18.558;2024-03-25T07:11:09;44.45;;;21.95;;
68806;SDS011;55800;54.272;18.558;2024-03-25T07:13:36;42.40;;;21.88;;
68806;SDS011;55800;54.272;18.558;2024-03-25T07:16:05;45.15;;;21.13;;
68806;SDS011;55800;54.272;18.558;2024-03-25T07:18:32;34.80;;;20.13;;
68806;SDS011;55800;54.272;18.558;2024-03-25T07:21:00;35.15;;;19.42;;
68806;SDS011;55800;54.272;18.558;2024-03-25T07:23:27;34.30;;;19.02;;
68806;SDS011;55800;54.272;18.558;2024-03-25T07:25:54;37.53;;;20.40;;
68806;SDS011;55800;54.272;18.558;2024-03-25T07:28:21;39.33;;;21.42;;
68806;SDS011;55800;54.272;18.558;2024-03-25T07:30:49;41.30;;;21.10;;
68806;SDS011;55800;54.272;18.558;2024-03-25T07:33:18;34.75;;;19.88;;
68806;SDS011;55800;54.272;18.558;2024-03-25T07:35:45;34.53;;;21.25;;
68806;SDS011;55800;54.272;18.558;2024-03-25T07:38:12;38.53;;;19.77;;
68806;SDS011;55800;54.272;18.558;2024-03-25T07:40:39;34.83;;;19.40;;
68806;SDS011;55800;54.272;18.558;2024-03-25T07:43:06;39.45;;;20.30;;
68806;SDS011;55800;54.272;18.558;2024-03-25T07:45:34;30.67;;;18.92;;
68806;SDS011;55800;54.272;18.558;2024-03-25T07:48:01;39.50;;;21.05;;
68806;SDS011;55800;54.272;18.558;2024-03-25T07:50:30;39.50;;;22.00;;
68806;SDS011;55800;54.272;18.558;2024-03-25T07:52:57;36.05;;;20.60;;
68806;SDS011;55800;54.272;18.558;2024-03-25T07:55:24;39.88;;;19.30;;
68806;SDS011;55800;54.272;18.558;2024-03-25T07:57:51;30.33;;;16.48;;
68806;SDS011;55800;54.272;18.558;2024-03-25T08:00:19;24.40;;;14.60;;
68806;SDS011;55800;54.272;18.558;2024-03-25T08:02:46;25.83;;;15.23;;
68806;SDS011;55800;54.272;18.558;2024-03-25T08:05:13;26.23;;;14.05;;
68806;SDS011;55800;54.272;18.558;2024-03-25T08:07:42;25.45;;;15.98;;
68806;SDS011;55800;54.272;18.558;2024-03-25T08:10:10;29.48;;;17.23;;
68806;SDS011;55800;54.272;18.558;2024-03-25T08:12:37;28.67;;;15.85;;
68806;SDS011;55800;54.272;18.558;2024-03-25T08:15:04;28.75;;;15.50;;
68806;SDS011;55800;54.272;18.558;2024-03-25T08:17:32;25.08;;;13.85;;
68806;SDS011;55800;54.272;18.558;2024-03-25T08:19:59;28.15;;;16.17;;
68806;SDS011;55800;54.272;18.558;2024-03-25T08:22:26;28.77;;;16.25;;
68806;SDS011;55800;54.272;18.558;2024-03-25T08:24:55;25.77;;;15.57;;
68806;SDS011;55800;54.272;18.558;2024-03-25T08:27:22;26.80;;;16.27;;
68806;SDS011;55800;54.272;18.558;2024-03-25T08:29:49;28.08;;;16.05;;
68806;SDS011;55800;54.272;18.558;2024-03-25T08:32:16;26.98;;;14.75;;
68806;SDS011;55800;54.272;18.558;2024-03-25T08:34:44;26.35;;;15.13;;
68806;SDS011;55800;54.272;18.558;2024-03-25T08:37:11;25.85;;;15.63;;
68806;SDS011;55800;54.272;18.558;2024-03-25T08:39:38;29.02;;;14.38;;
68806;SDS011;55800;54.272;18.558;2024-03-25T08:42:07;27.23;;;15.02;;
68806;SDS011;55800;54.272;18.558;2024-03-25T08:44:34;23.63;;;13.60;;
68806;SDS011;55800;54.272;18.558;2024-03-25T08:47:01;24.38;;;13.30;;
68806;SDS011;55800;54.272;18.558;2024-03-25T08:49:29;29.67;;;15.55;;
68806;SDS011;55800;54.272;18.558;2024-03-25T08:51:56;28.30;;;14.57;;
68806;SDS011;55800;54.272;18.558;2024-03-25T08:54:23;21.27;;;13.73;;
68806;SDS011;55800;54.272;18.558;2024-03-25T08:56:50;27.50;;;13.30;;
68806;SDS011;55800;54.272;18.558;2024-03-25T08:59:20;21.58;;;12.63;;
68806;SDS011;55800;54.272;18.558;2024-03-25T09:04:14;21.80;;;13.55;;
68806;SDS011;55800;54.272;18.558;2024-03-25T09:06:42;22.50;;;12.75;;
68806;SDS011;55800;54.272;18.558;2024-03-25T09:09:09;23.65;;;13.13;;
68806;SDS011;55800;54.272;18.558;2024-03-25T09:12:09;21.33;;;11.88;;
68806;SDS011;55800;54.272;18.558;2024-03-25T09:14:38;21.15;;;12.10;;
68806;SDS011;55800;54.272;18.558;2024-03-25T09:17:05;22.88;;;12.88;;
68806;SDS011;55800;54.272;18.558;2024-03-25T09:19:32;22.58;;;13.55;;
68806;SDS011;55800;54.272;18.558;2024-03-25T09:21:59;25.27;;;13.20;;
68806;SDS011;55800;54.272;18.558;2024-03-25T09:24:27;21.02;;;13.20;;
68806;SDS011;55800;54.272;18.558;2024-03-25T09:26:54;25.92;;;13.52;;
68806;SDS011;55800;54.272;18.558;2024-03-25T09:29:21;22.83;;;12.93;;
68806;SDS011;55800;54.272;18.558;2024-03-25T09:31:50;23.10;;;13.15;;
68806;SDS011;55800;54.272;18.558;2024-03-25T09:34:17;23.47;;;14.13;;
68806;SDS011;55800;54.272;18.558;2024-03-25T09:36:44;15.48;;;9.27;;
68806;SDS011;55800;54.272;18.558;2024-03-25T09:39:12;21.08;;;12.43;;
68806;SDS011;55800;54.272;18.558;2024-03-25T09:41:39;21.25;;;12.27;;
68806;SDS011;55800;54.272;18.558;2024-03-25T09:44:10;20.02;;;11.43;;
68806;SDS011;55800;54.272;18.558;2024-03-25T09:46:38;18.20;;;10.27;;
68806;SDS011;55800;54.272;18.558;2024-03-25T09:49:06;20.00;;;11.32;;
68806;SDS011;55800;54.272;18.558;2024-03-25T09:51:34;18.23;;;9.93;;
68806;SDS011;55800;54.272;18.558;2024-03-25T09:54:01;18.20;;;10.88;;
68806;SDS011;55800;54.272;18.558;2024-03-25T09:56:29;15.57;;;9.68;;
68806;SDS011;55800;54.272;18.558;2024-03-25T09:58:57;19.75;;;10.75;;
68806;SDS011;55800;54.272;18.558;2024-03-25T10:01:25;22.00;;;13.10;;
68806;SDS011;55800;54.272;18.558;2024-03-25T10:03:54;20.27;;;11.30;;
68806;SDS011;55800;54.272;18.558;2024-03-25T10:06:22;16.20;;;8.98;;
68806;SDS011;55800;54.272;18.558;2024-03-25T10:08:53;12.68;;;9.18;;
68806;SDS011;55800;54.272;18.558;2024-03-25T10:11:20;14.43;;;8.13;;
68806;SDS011;55800;54.272;18.558;2024-03-25T10:13:47;15.50;;;9.15;;
68806;SDS011;55800;54.272;18.558;2024-03-25T10:16:14;15.68;;;9.32;;
68806;SDS011;55800;54.272;18.558;2024-03-25T10:18:42;12.68;;;7.30;;
68806;SDS011;55800;54.272;18.558;2024-03-25T10:21:09;14.80;;;8.43;;
68806;SDS011;55800;54.272;18.558;2024-03-25T10:23:39;15.82;;;8.10;;
68806;SDS011;55800;54.272;18.558;2024-03-25T10:26:06;10.40;;;7.47;;
68806;SDS011;55800;54.272;18.558;2024-03-25T10:28:34;13.07;;;7.20;;
68806;SDS011;55800;54.272;18.558;2024-03-25T10:31:04;12.82;;;7.32;;
68806;SDS011;55800;54.272;18.558;2024-03-25T10:33:32;14.75;;;7.95;;
68806;SDS011;55800;54.272;18.558;2024-03-25T10:35:59;13.38;;;8.50;;
68806;SDS011;55800;54.272;18.558;2024-03-25T10:38:28;15.95;;;7.00;;
68806;SDS011;55800;54.272;18.558;2024-03-25T10:40:58;16.83;;;8.90;;
68806;SDS011;55800;54.272;18.558;2024-03-25T10:43:25;13.77;;;8.52;;
68806;SDS011;55800;54.272;18.558;2024-03-25T10:45:57;13.10;;;7.82;;
68806;SDS011;55800;54.272;18.558;2024-03-25T10:48:26;14.15;;;9.05;;
68806;SDS011;55800;54.272;18.558;2024-03-25T10:53:22;13.90;;;7.57;;
68806;SDS011;55800;54.272;18.558;2024-03-25T10:55:53;12.30;;;7.90;;
68806;SDS011;55800;54.272;18.558;2024-03-25T10:58:23;11.80;;;7.97;;
68806;SDS011;55800;54.272;18.558;2024-03-25T11:00:51;13.65;;;7.20;;
68806;SDS011;55800;54.272;18.558;2024-03-25T11:03:20;13.13;;;7.78;;
68806;SDS011;55800;54.272;18.558;2024-03-25T11:05:51;12.48;;;8.25;;
68806;SDS011;55800;54.272;18.558;2024-03-25T11:08:19;13.23;;;7.45;;
68806;SDS011;55800;54.272;18.558;2024-03-25T11:10:46;14.52;;;7.45;;
68806;SDS011;55800;54.272;18.558;2024-03-25T11:13:14;10.15;;;5.88;;
68806;SDS011;55800;54.272;18.558;2024-03-25T11:15:45;9.45;;;5.75;;
68806;SDS011;55800;54.272;18.558;2024-03-25T11:18:15;12.63;;;7.32;;
68806;SDS011;55800;54.272;18.558;2024-03-25T11:20:43;10.80;;;6.15;;
68806;SDS011;55800;54.272;18.558;2024-03-25T11:23:11;9.52;;;5.93;;
68806;SDS011;55800;54.272;18.558;2024-03-25T11:25:40;9.43;;;5.95;;
68806;SDS011;55800;54.272;18.558;2024-03-25T11:28:07;9.07;;;5.68;;
68806;SDS011;55800;54.272;18.558;2024-03-25T11:30:36;13.80;;;6.43;;
68806;SDS011;55800;54.272;18.558;2024-03-25T11:33:05;10.60;;;6.38;;
68806;SDS011;55800;54.272;18.558;2024-03-25T11:35:36;9.43;;;5.47;;
68806;SDS011;55800;54.272;18.558;2024-03-25T11:38:04;10.48;;;5.75;;
68806;SDS011;55800;54.272;18.558;2024-03-25T11:40:31;8.50;;;5.13;;
68806;SDS011;55800;54.272;18.558;2024-03-25T11:42:59;13.60;;;6.43;;
68806;SDS011;55800;54.272;18.558;2024-03-25T11:45:26;13.80;;;6.90;;
68806;SDS011;55800;54.272;18.558;2024-03-25T11:47:54;17.45;;;8.23;;
68806;SDS011;55800;54.272;18.558;2024-03-25T11:50:22;16.70;;;7.50;;
68806;SDS011;55800;54.272;18.558;2024-03-25T11:52:50;15.88;;;7.22;;
68806;SDS011;55800;54.272;18.558;2024-03-25T11:55:17;15.57;;;7.85;;
68806;SDS011;55800;54.272;18.558;2024-03-25T11:57:44;14.82;;;5.95;;
68806;SDS011;55800;54.272;18.558;2024-03-25T12:00:12;9.13;;;4.95;;
68806;SDS011;55800;54.272;18.558;2024-03-25T12:02:42;10.05;;;5.22;;
68806;SDS011;55800;54.272;18.558;2024-03-25T12:05:12;7.32;;;4.70;;
68806;SDS011;55800;54.272;18.558;2024-03-25T12:07:41;11.30;;;5.20;;
68806;SDS011;55800;54.272;18.558;2024-03-25T12:10:08;9.70;;;4.68;;
68806;SDS011;55800;54.272;18.558;2024-03-25T12:12:55;10.18;;;4.70;;
68806;SDS011;55800;54.272;18.558;2024-03-25T12:15:22;10.82;;;6.07;;
68806;SDS011;55800;54.272;18.558;2024-03-25T12:17:50;8.75;;;4.95;;
68806;SDS011;55800;54.272;18.558;2024-03-25T12:20:19;7.82;;;4.43;;
68806;SDS011;55800;54.272;18.558;2024-03-25T12:22:48;8.93;;;4.93;;
68806;SDS011;55800;54.272;18.558;2024-03-25T12:25:15;10.35;;;5.55;;
68806;SDS011;55800;54.272;18.558;2024-03-25T12:27:45;10.80;;;5.50;;
68806;SDS011;55800;54.272;18.558;2024-03-25T12:30:13;9.43;;;5.55;;
68806;SDS011;55800;54.272;18.558;2024-03-25T12:32:41;9.30;;;5.30;;
68806;SDS011;55800;54.272;18.558;2024-03-25T12:35:09;8.07;;;5.63;;
68806;SDS011;55800;54.272;18.558;2024-03-25T12:37:37;10.95;;;5.95;;
68806;SDS011;55800;54.272;18.558;2024-03-25T12:40:07;7.50;;;5.07;;
68806;SDS011;55800;54.272;18.558;2024-03-25T12:42:37;8.68;;;5.40;;
68806;SDS011;55800;54.272;18.558;2024-03-25T12:45:04;10.07;;;5.40;;
68806;SDS011;55800;54.272;18.558;2024-03-25T12:47:32;10.07;;;5.97;;
68806;SDS011;55800;54.272;18.558;2024-03-25T12:49:59;7.97;;;4.45;;
68806;SDS011;55800;54.272;18.558;2024-03-25T12:52:27;8.52;;;4.93;;
68806;SDS011;55800;54.272;18.558;2024-03-25T12:54:54;8.32;;;4.78;;
68806;SDS011;55800;54.272;18.558;2024-03-25T12:57:22;7.20;;;3.60;;
68806;SDS011;55800;54.272;18.558;2024-03-25T12:59:50;8.27;;;4.78;;
68806;SDS011;55800;54.272;18.558;2024-03-25T13:02:17;8.88;;;5.07;;
68806;SDS011;55800;54.272;18.558;2024-03-25T13:04:45;8.60;;;5.18;;
68806;SDS011;55800;54.272;18.558;2024-03-25T13:07:12;11.27;;;5.85;;
68806;SDS011;55800;54.272;18.558;2024-03-25T13:09:39;9.10;;;4.38;;
68806;SDS011;55800;54.272;18.558;2024-03-25T13:12:06;10.13;;;5.10;;
68806;SDS011;55800;54.272;18.558;2024-03-25T13:14:35;6.80;;;3.95;;
68806;SDS011;55800;54.272;18.558;2024-03-25T13:17:02;6.75;;;4.32;;
68806;SDS011;55800;54.272;18.558;2024-03-25T13:19:30;7.75;;;3.72;;
68806;SDS011;55800;54.272;18.558;2024-03-25T13:21:57;6.22;;;4.40;;
68806;SDS011;55800;54.272;18.558;2024-03-25T13:24:24;8.23;;;3.88;;
68806;SDS011;55800;54.272;18.558;2024-03-25T13:26:51;8.15;;;3.92;;
68806;SDS011;55800;54.272;18.558;2024-03-25T13:29:19;7.93;;;5.03;;
68806;SDS011;55800;54.272;18.558;2024-03-25T13:31:48;7.70;;;4.38;;
68806;SDS011;55800;54.272;18.558;2024-03-25T13:34:16;7.50;;;4.80;;
68806;SDS011;55800;54.272;18.558;2024-03-25T13:36:43;9.60;;;4.65;;
68806;SDS011;55800;54.272;18.558;2024-03-25T13:39:10;10.52;;;5.60;;
68806;SDS011;55800;54.272;18.558;2024-03-25T13:41:37;10.32;;;6.32;;
68806;SDS011;55800;54.272;18.558;2024-03-25T13:44:05;13.98;;;5.90;;
68806;SDS011;55800;54.272;18.558;2024-03-25T13:46:32;10.45;;;5.28;;
68806;SDS011;55800;54.272;18.558;2024-03-25T13:49:01;12.88;;;5.00;;
68806;SDS011;55800;54.272;18.558;2024-03-25T13:51:28;9.82;;;4.97;;
68806;SDS011;55800;54.272;18.558;2024-03-25T13:53:55;9.35;;;5.70;;
68806;SDS011;55800;54.272;18.558;2024-03-25T13:56:22;10.20;;;5.25;;
68806;SDS011;55800;54.272;18.558;2024-03-25T13:58:50;8.35;;;4.40;;
68806;SDS011;55800;54.272;18.558;2024-03-25T14:01:17;9.55;;;5.15;;
68806;SDS011;55800;54.272;18.558;2024-03-25T14:03:44;13.98;;;5.53;;
68806;SDS011;55800;54.272;18.558;2024-03-25T14:06:13;11.30;;;5.50;;
68806;SDS011;55800;54.272;18.558;2024-03-25T14:08:41;8.30;;;4.53;;
68806;SDS011;55800;54.272;18.558;2024-03-25T14:11:08;10.27;;;3.78;;
68806;SDS011;55800;54.272;18.558;2024-03-25T14:13:35;10.00;;;4.32;;
68806;SDS011;55800;54.272;18.558;2024-03-25T14:16:03;9.02;;;4.45;;
68806;SDS011;55800;54.272;18.558;2024-03-25T14:18:31;10.50;;;4.05;;
68806;SDS011;55800;54.272;18.558;2024-03-25T14:20:58;11.35;;;4.43;;
68806;SDS011;55800;54.272;18.558;2024-03-25T14:23:27;6.22;;;3.70;;
68806;SDS011;55800;54.272;18.558;2024-03-25T14:25:55;7.87;;;4.37;;
68806;SDS011;55800;54.272;18.558;2024-03-25T14:28:22;10.20;;;5.35;;
68806;SDS011;55800;54.272;18.558;2024-03-25T14:30:49;8.18;;;4.30;;